createdAt,value
2019-05-14T00:04:31.570Z,4.50
2019-05-14T00:09:36.325Z,4.70
2019-05-14T00:14:43.647Z,4.57
2019-05-14T00:19:46.278Z,5.47
2019-05-14T00:24:51.999Z,5.43
2019-05-14T00:29:56.267Z,4.73
2019-05-14T00:35:02.007Z,4.50
2019-05-14T00:40:06.187Z,4.93
2019-05-14T00:45:11.575Z,4.70
2019-05-14T00:50:15.990Z,5.07
2019-05-14T00:55:22.120Z,4.30
2019-05-14T01:00:25.933Z,4.53
2019-05-14T01:05:32.116Z,4.27
2019-05-14T01:10:36.650Z,4.10
2019-05-14T01:15:41.472Z,4.27
2019-05-14T01:20:45.641Z,3.70
2019-05-14T01:25:51.644Z,4.37
2019-05-14T01:30:55.419Z,3.40
2019-05-14T01:36:01.792Z,3.63
2019-05-14T01:41:05.379Z,3.20
2019-05-14T01:46:11.997Z,3.97
2019-05-14T01:51:15.305Z,3.90
2019-05-14T01:56:21.324Z,3.40
2019-05-14T02:01:25.607Z,4.60
2019-05-14T02:06:33.059Z,3.30
2019-05-14T02:11:37.305Z,3.53
2019-05-14T02:16:42.374Z,3.90
2019-05-14T02:21:46.718Z,3.80
2019-05-14T02:26:51.434Z,4.00
2019-05-14T02:31:58.830Z,4.17
2019-05-14T02:37:01.642Z,4.50
2019-05-14T02:42:09.027Z,3.87
2019-05-14T02:47:11.547Z,4.43
2019-05-14T02:52:15.603Z,4.00
2019-05-14T02:57:20.339Z,4.23
2019-05-14T03:02:24.539Z,4.63
2019-05-14T03:07:29.782Z,4.90
2019-05-14T03:12:35.097Z,4.93
2019-05-14T03:17:40.327Z,4.33
2019-05-14T03:22:58.697Z,4.47
2019-05-14T03:27:50.751Z,4.67
2019-05-14T03:32:54.931Z,4.97
2019-05-14T03:38:00.439Z,5.10
2019-05-14T03:43:04.891Z,5.57
2019-05-14T03:48:10.400Z,5.33
2019-05-14T03:53:14.988Z,4.77
2019-05-14T03:58:21.050Z,4.97
2019-05-14T04:03:25.114Z,4.83
2019-05-14T04:08:30.412Z,4.40
2019-05-14T04:13:35.969Z,4.47
2019-05-14T04:18:40.945Z,4.97
2019-05-14T04:23:50.796Z,5.43
2019-05-14T04:28:55.439Z,5.13
2019-05-14T04:34:01.617Z,4.60
2019-05-14T04:39:09.454Z,4.53
2019-05-14T04:44:15.101Z,5.13
2019-05-14T04:49:20.032Z,5.60
2019-05-14T04:54:24.290Z,5.03
2019-05-14T04:59:29.957Z,5.90
2019-05-14T05:04:34.737Z,5.40
2019-05-14T05:09:39.750Z,5.37
2019-05-14T05:14:45.332Z,5.60
2019-05-14T05:19:51.595Z,5.63
2019-05-14T05:24:55.174Z,4.70
2019-05-14T05:29:59.367Z,4.97
2019-05-14T05:35:03.538Z,5.47
2019-05-14T05:40:09.128Z,5.47
2019-05-14T05:45:13.867Z,6.07
2019-05-14T05:50:19.335Z,5.33
2019-05-14T05:55:23.614Z,4.90
2019-05-14T06:00:33.954Z,5.10
2019-05-14T06:05:39.052Z,5.67
2019-05-14T06:10:44.251Z,6.07
2019-05-14T06:15:51.458Z,5.57
2019-05-14T06:20:54.191Z,4.93
2019-05-14T06:25:59.741Z,4.47
2019-05-14T06:31:04.602Z,5.10
2019-05-14T06:36:08.967Z,6.40
2019-05-14T06:41:13.228Z,5.47
2019-05-14T06:46:19.350Z,6.53
2019-05-14T06:51:23.183Z,6.07
2019-05-14T06:56:28.238Z,5.80
2019-05-14T07:01:32.539Z,5.97
2019-05-14T07:06:38.933Z,6.77
2019-05-14T07:11:42.583Z,6.27
2019-05-14T07:16:48.500Z,6.90
2019-05-14T07:21:52.561Z,7.07
2019-05-14T07:26:58.719Z,7.47
2019-05-14T07:32:02.533Z,7.97
2019-05-14T07:37:09.051Z,6.73
2019-05-14T07:42:12.309Z,7.13
2019-05-14T07:47:18.549Z,7.03
2019-05-14T07:52:22.100Z,7.97
2019-05-14T07:57:28.320Z,7.67
2019-05-14T08:02:32.197Z,6.87
2019-05-14T08:07:38.625Z,8.23
2019-05-14T08:12:42.018Z,8.07
2019-05-14T08:17:48.294Z,7.47
2019-05-14T08:22:51.893Z,6.80
2019-05-14T08:27:55.975Z,7.43
2019-05-14T08:33:00.107Z,8.07
2019-05-14T08:38:08.364Z,6.70
2019-05-14T08:43:10.057Z,7.53
2019-05-14T08:48:14.177Z,7.30
2019-05-14T08:53:18.706Z,7.80
2019-05-14T08:58:22.998Z,7.03
2019-05-14T09:03:28.758Z,7.37
2019-05-14T09:08:33.252Z,6.83
2019-05-14T09:13:38.301Z,6.73
2019-05-14T09:18:42.851Z,7.03
2019-05-14T09:23:48.162Z,5.80
2019-05-14T09:28:52.495Z,6.63
2019-05-14T09:33:58.459Z,7.43
2019-05-14T09:39:02.981Z,6.87
2019-05-14T09:44:09.170Z,6.10
2019-05-14T09:49:13.017Z,7.53
2019-05-14T09:54:19.275Z,6.23
2019-05-14T09:59:23.099Z,7.43
2019-05-14T10:04:27.184Z,6.23
2019-05-14T10:09:31.337Z,6.23
2019-05-14T10:14:35.429Z,6.33
2019-05-14T10:19:39.704Z,6.67
2019-05-14T10:24:43.987Z,6.10
2019-05-14T10:29:48.302Z,6.87
2019-05-14T10:34:52.499Z,6.90
2019-05-14T10:39:58.652Z,5.93
2019-05-14T10:45:02.294Z,5.57
2019-05-14T10:50:13.371Z,6.77
2019-05-14T10:55:13.348Z,6.87
2019-05-14T11:00:18.608Z,6.20
2019-05-14T11:05:23.036Z,6.70
2019-05-14T11:10:29.659Z,6.27
2019-05-14T11:15:32.959Z,6.37
2019-05-14T11:20:41.727Z,7.20
2019-05-14T11:25:42.999Z,5.70
2019-05-14T11:30:49.378Z,7.00
2019-05-14T11:35:52.948Z,6.83
2019-05-14T11:40:58.762Z,5.97
2019-05-14T11:46:02.785Z,6.30
2019-05-14T11:51:09.074Z,7.63
2019-05-14T11:56:12.653Z,6.03
2019-05-14T12:01:18.821Z,6.33
2019-05-14T12:06:34.163Z,6.83
2019-05-14T12:11:38.615Z,6.13
2019-05-14T12:16:42.917Z,6.63
2019-05-14T12:22:02.301Z,6.87
2019-05-14T12:26:53.951Z,7.10
2019-05-14T12:31:58.641Z,7.47
2019-05-14T12:37:02.974Z,7.80
2019-05-14T12:42:10.543Z,7.13
2019-05-14T12:47:12.814Z,6.90
2019-05-14T12:52:24.785Z,6.47
2019-05-14T12:57:22.819Z,6.70
2019-05-14T13:02:29.448Z,6.03
2019-05-14T13:07:32.751Z,7.40
2019-05-14T13:12:39.090Z,7.37
2019-05-14T13:17:43.585Z,6.97
2019-05-14T13:22:50.321Z,7.63
2019-05-14T13:27:54.709Z,7.63
2019-05-14T13:32:59.290Z,7.80
2019-05-14T13:38:03.643Z,7.97
2019-05-14T13:43:09.819Z,8.10
2019-05-14T13:48:13.614Z,8.67
2019-05-14T13:53:18.895Z,7.90
2019-05-14T13:58:23.241Z,8.93
2019-05-14T14:03:29.188Z,7.50
2019-05-14T14:08:33.108Z,9.27
2019-05-14T14:13:39.201Z,8.83
2019-05-14T14:18:42.939Z,7.57
2019-05-14T14:23:49.446Z,10.30
2019-05-14T14:28:54.052Z,8.47
2019-05-14T14:33:58.161Z,9.40
2019-05-14T14:39:02.319Z,9.43
2019-05-14T14:44:08.761Z,10.00
2019-05-14T14:49:12.314Z,9.37
2019-05-14T14:54:16.602Z,8.40
2019-05-14T14:59:20.841Z,7.80
2019-05-14T15:04:24.885Z,8.70
2019-05-14T15:09:29.037Z,8.40
2019-05-14T15:14:33.185Z,8.70
2019-05-14T15:19:39.490Z,8.40
2019-05-14T15:24:43.388Z,7.40
2019-05-14T15:29:48.826Z,7.60
2019-05-14T15:34:53.354Z,6.77
2019-05-14T15:39:57.493Z,7.20
2019-05-14T15:45:01.622Z,5.50
2019-05-14T15:50:08.924Z,6.00
2019-05-14T15:55:12.685Z,4.50
2019-05-14T16:00:19.565Z,4.17
2019-05-14T16:05:22.993Z,3.77
2019-05-14T16:10:30.928Z,3.83
2019-05-14T16:15:33.159Z,3.80
2019-05-14T16:20:39.253Z,3.63
2019-05-14T16:25:43.208Z,3.27
2019-05-14T16:30:49.679Z,2.70
2019-05-14T16:35:53.132Z,3.57
2019-05-14T16:40:59.633Z,2.87
2019-05-14T16:46:03.005Z,2.90
2019-05-14T16:51:08.903Z,3.43
2019-05-14T16:56:13.292Z,3.27
2019-05-14T17:01:19.310Z,3.47
2019-05-14T17:06:23.268Z,3.20
2019-05-14T17:11:28.377Z,2.70
2019-05-14T17:16:38.158Z,3.00
2019-05-14T17:21:42.322Z,2.90
2019-05-14T17:26:48.746Z,2.97
2019-05-14T17:31:52.369Z,2.77
2019-05-14T17:36:59.198Z,2.57
2019-05-14T17:42:03.251Z,2.83
2019-05-14T17:47:07.589Z,2.97
2019-05-14T17:52:11.913Z,2.80
2019-05-14T17:57:16.090Z,2.37
2019-05-14T18:02:20.383Z,2.73
2019-05-14T18:07:24.485Z,2.97
2019-05-14T18:12:30.514Z,2.97
2019-05-14T18:17:34.466Z,3.20
2019-05-14T18:22:42.225Z,3.00
2019-05-14T18:27:44.380Z,2.80
2019-05-14T18:32:48.807Z,3.53
2019-05-14T18:37:52.945Z,3.33
2019-05-14T18:42:59.108Z,3.40
2019-05-14T18:48:02.782Z,2.80
2019-05-14T18:53:09.024Z,2.73
2019-05-14T18:58:12.967Z,3.47
2019-05-14T19:03:19.680Z,3.23
2019-05-14T19:08:22.985Z,3.40
2019-05-14T19:13:28.183Z,3.80
2019-05-14T19:18:33.100Z,3.73
2019-05-14T19:23:38.438Z,3.63
2019-05-14T19:28:43.020Z,3.70
2019-05-14T19:33:48.766Z,3.40
2019-05-14T19:38:52.977Z,3.33
2019-05-14T19:43:59.457Z,3.47
2019-05-14T19:49:03.196Z,3.70
2019-05-14T19:54:08.175Z,4.03
2019-05-14T19:59:12.484Z,3.20
2019-05-14T20:04:18.346Z,3.70
2019-05-14T20:09:22.616Z,3.20
2019-05-14T20:14:28.711Z,3.30
2019-05-14T20:19:32.510Z,3.10
2019-05-14T20:24:41.165Z,3.40
2019-05-14T20:29:43.442Z,2.80
2019-05-14T20:34:48.706Z,3.10
2019-05-14T20:39:52.872Z,3.13
2019-05-14T20:44:57.033Z,3.07
2019-05-14T20:50:01.259Z,3.13
2019-05-14T20:55:05.914Z,3.50
2019-05-14T21:00:11.850Z,3.60
2019-05-14T21:05:16.183Z,3.17
2019-05-14T21:10:20.485Z,3.83
2019-05-14T21:15:24.591Z,3.20
2019-05-14T21:20:28.731Z,3.70
2019-05-14T21:25:33.305Z,4.27
2019-05-14T21:30:38.866Z,3.97
2019-05-14T21:35:43.229Z,3.53
2019-05-14T21:40:49.762Z,3.33
2019-05-14T21:45:53.134Z,3.53
2019-05-14T21:51:00.548Z,3.93
2019-05-14T21:56:03.037Z,3.13
2019-05-14T22:01:07.961Z,4.03
2019-05-14T22:06:12.259Z,4.13
2019-05-14T22:11:18.659Z,3.87
2019-05-14T22:16:22.211Z,3.80
2019-05-14T22:21:26.341Z,3.37
2019-05-14T22:26:30.477Z,3.23
2019-05-14T22:31:34.754Z,4.10
2019-05-14T22:36:38.988Z,3.40
2019-05-14T22:41:43.021Z,3.53
2019-05-14T22:46:49.009Z,4.07
2019-05-14T22:51:52.844Z,3.97
2019-05-14T22:56:58.915Z,3.50
2019-05-14T23:02:02.722Z,3.57
2019-05-14T23:07:08.222Z,3.63
2019-05-14T23:12:12.523Z,3.57
2019-05-14T23:17:16.529Z,3.90
2019-05-14T23:22:20.559Z,3.90
2019-05-14T23:27:24.762Z,3.97
2019-05-14T23:32:28.922Z,3.47
2019-05-14T23:37:32.906Z,3.50
2019-05-14T23:42:39.194Z,3.80
2019-05-14T23:47:42.717Z,3.13
2019-05-14T23:52:49.221Z,4.37
2019-05-14T23:57:52.447Z,3.77
